This demonstration page uses our WeatherBlox Daily Observations layout. Learn more.

41.55636, -103.73856

Hourly Observations for December 31, 2019

Temp ( °F °C ) Dew Point ( °F °C ) Humidity (%) Winds ( mph kmh ) Pressure ( in mb ) Visibility ( mi km ) Precip ( " mm )
12:58 am 00:58 Clear 16 -8.9 8 -13.6 69 69 W 9 15 30.3 1026 10 16.0934 0 0
1:58 am 01:58 Clear 19 -7.2 9 -13 64 64 W 14 22 30.28 1026 10 16.0934 0 0
2:58 am 02:58 Clear 19 -7.3 9 -13 64 64 WNW 13 20 30.28 1026 10 16.0934 0 0
3:58 am 03:58 Clear 17 -8.1 8 -13.1 68 68 W 13 20 30.27 1025 10 16.0934 0 0
4:58 am 04:58 Mostly Cloudy 19 -7.4 9 -12.6 67 67 W 10 17 30.26 1025 10 16.0934 0 0
5:59 am 05:59 Mostly Clear 17 -8.1 8 -13.5 65 65 WNW 9 15 30.26 1025 10 16.0934 0 0
6:58 am 06:58 Clear 19 -7.5 9 -12.6 67 67 WNW 7 11 30.23 1024 10 16.0934 0 0
7:58 am 07:58 Clear 18 -8 8 -13.3 66 66 NW 10 17 30.22 1023 10 16.0934 0 0
8:58 am 08:58 Clear 17 -8.3 7 -14 64 64 W 6 9 30.22 1023 10 16.0934 0 0
9:58 am 09:58 Clear 15 -9.4 7 -13.7 71 71 W 13 20 30.21 1023 10 16.0934 0 0
10:58 am 10:58 Clear 17 -8.3 8 -13.3 68 68 W 17 28 30.2 1023 10 16.0934 0 0
11:58 am 11:58 Clear 15 -9.2 7 -13.9 69 69 W 9 15 30.21 1023 10 16.0934 0 0
12:58 pm 12:58 Clear 16 -8.7 7 -14 66 66 W 8 13 30.21 1023 10 16.0934 0 0
1:58 pm 13:58 Clear 20 -6.4 8 -13.4 58 58 W 17 28 30.17 1022 10 16.0934 0 0
2:58 pm 14:58 Sunny 21 -6.1 8 -13.5 56 56 WNW 21 33 30.15 1021 10 16.0934 0 0
3:58 pm 15:58 Sunny 23 -5 9 -12.6 56 56 W 16 26 30.14 1021 10 16.0934 0 0
4:58 pm 16:58 Sunny 26 -3.3 11 -11.8 52 52 W 16 26 30.13 1020 10 16.0934 0 0
5:58 pm 17:58 Sunny 29 -1.5 12 -10.9 49 49 W 13 20 30.1 1019 10 16.0934 0 0
6:58 pm 18:58 Sunny 32 0.2 15 -9.6 48 48 WNW 8 13 30.05 1018 10 16.0934 0 0
7:58 pm 19:58 Sunny 34 1 16 -8.7 49 49 WSW 8 13 30.02 1017 10 16.0934 0 0
8:58 pm 20:58 Sunny 35 1.6 19 -7.2 52 52 W 5 7 30 1016 10 16.0934 0 0
9:58 pm 21:58 Sunny 34 1.3 14 -9.8 44 44 WNW 9 15 30 1016 10 16.0934 0 0
10:58 pm 22:58 Sunny 32 0.2 15 -9.3 49 49 W 12 19 29.98 1015 10 16.0934 0 0
11:58 pm 23:58 Clear 29 -1.8 15 -9.6 56 56 W 12 19 29.98 1015 10 16.0934 0 0

Powered by AerisWeather